Time;durP1;ratioP1;P1;durP2;ratioP2;P2;SDS_P1;SDS_P2;PMS_P1;PMS_P2;Temp;Humidity;BMP_temperature;BMP_pressure;BME280_temperature;BME280_humidity;BME280_pressure;Samples;Min_cycle;Max_cycle;Signal;HPM_P1;HPM_P2
2022/07/31 00:01:34;;;;;;;7.67;6.53;;;17.50;99.90;;;;;;5066575;28;20941;-71
2022/07/31 00:04:01;;;;;;;7.77;6.63;;;17.50;99.90;;;;;;5067759;28;20987;-71
2022/07/31 00:06:28;;;;;;;8.30;7.27;;;17.30;99.90;;;;;;5066787;28;20478;-70
2022/07/31 00:08:56;;;;;;;8.37;6.07;;;17.30;99.90;;;;;;5067916;28;20436;-72
2022/07/31 00:11:23;;;;;;;8.63;6.67;;;17.30;99.90;;;;;;5066394;28;20435;-72
2022/07/31 00:13:50;;;;;;;8.40;7.60;;;17.30;99.90;;;;;;5068377;28;20455;-71
2022/07/31 00:16:17;;;;;;;7.43;6.83;;;17.30;99.90;;;;;;5066997;28;20463;-73
2022/07/31 00:18:43;;;;;;;10.90;6.87;;;17.20;99.90;;;;;;5066067;28;20495;-71
2022/07/31 00:21:12;;;;;;;8.50;7.10;;;17.10;99.90;;;;;;5062973;28;20440;-70
2022/07/31 00:23:39;;;;;;;8.10;7.40;;;17.10;99.90;;;;;;5064468;28;20439;-71
2022/07/31 00:26:08;;;;;;;7.30;6.70;;;17.00;99.90;;;;;;5064335;28;20459;-72
2022/07/31 00:28:35;;;;;;;9.33;7.73;;;17.00;99.90;;;;;;5064839;28;20439;-71
2022/07/31 00:31:03;;;;;;;9.70;7.53;;;17.00;99.90;;;;;;5064052;28;20446;-71
2022/07/31 00:33:29;;;;;;;8.50;7.77;;;16.90;99.90;;;;;;5064844;28;20439;-70
2022/07/31 00:35:56;;;;;;;9.43;8.43;;;17.00;99.90;;;;;;5063880;28;20851;-71
2022/07/31 00:38:24;;;;;;;9.40;8.30;;;17.00;99.90;;;;;;5064070;28;20494;-72
2022/07/31 00:40:51;;;;;;;10.67;8.50;;;17.10;99.90;;;;;;5064046;28;20443;-71
2022/07/31 00:43:20;;;;;;;9.00;8.20;;;17.20;99.90;;;;;;5067979;28;20453;-70
2022/07/31 00:45:48;;;;;;;8.77;7.37;;;17.20;99.90;;;;;;5068431;28;20542;-72
2022/07/31 00:48:14;;;;;;;8.20;7.50;;;17.20;99.90;;;;;;5066851;28;20878;-71
2022/07/31 00:50:41;;;;;;;8.77;8.07;;;17.30;99.90;;;;;;5067981;28;20462;-71
2022/07/31 00:53:08;;;;;;;9.20;8.33;;;17.30;99.90;;;;;;5065749;28;20494;-70
2022/07/31 00:55:35;;;;;;;8.87;8.07;;;17.20;99.90;;;;;;5071189;28;20450;-70
2022/07/31 00:58:01;;;;;;;8.53;7.73;;;17.10;99.90;;;;;;5072708;28;20443;-70
2022/07/31 01:00:30;;;;;;;9.27;8.50;;;17.10;99.90;;;;;;5071305;28;20447;-71
2022/07/31 01:02:57;;;;;;;8.80;8.00;;;17.00;99.90;;;;;;5072824;28;20466;-73
2022/07/31 01:05:24;;;;;;;10.10;9.10;;;16.90;99.90;;;;;;5072553;28;20451;-70
2022/07/31 01:07:50;;;;;;;9.60;8.80;;;16.90;99.90;;;;;;5073100;28;20455;-70
2022/07/31 01:10:29;;;;;;;11.03;9.07;;;16.80;99.90;;;;;;5072133;28;21087;-70
2022/07/31 01:12:59;;;;;;;11.70;9.17;;;16.70;99.90;;;;;;5073178;28;20877;-72
2022/07/31 01:15:27;;;;;;;10.77;9.67;;;16.70;99.90;;;;;;5072607;28;20461;-70
2022/07/31 01:17:56;;;;;;;10.63;9.73;;;16.70;99.90;;;;;;5072931;28;20446;-70
2022/07/31 01:20:24;;;;;;;10.93;9.87;;;16.60;99.90;;;;;;5072417;28;20451;-70
2022/07/31 01:23:06;;;;;;;10.43;9.53;;;16.60;99.90;;;;;;5073271;28;20454;-70
2022/07/31 01:25:40;;;;;;;9.97;8.97;;;16.60;99.90;;;;;;5072451;28;20454;-71
2022/07/31 01:28:21;;;;;;;10.40;9.60;;;16.70;99.90;;;;;;5072579;28;20802;-70
2022/07/31 01:30:54;;;;;;;11.30;10.30;;;16.60;99.90;;;;;;5071967;28;20812;-72
2022/07/31 01:33:23;;;;;;;10.57;9.67;;;16.40;99.90;;;;;;5072583;28;20949;-71
2022/07/31 01:35:54;;;;;;;10.40;9.50;;;16.40;99.90;;;;;;5072099;28;20474;-71
2022/07/31 01:38:30;;;;;;;9.80;9.00;;;16.50;99.90;;;;;;5072730;28;20474;-70
2022/07/31 01:41:00;;;;;;;11.17;10.20;;;16.40;99.90;;;;;;5071296;28;20469;-71
2022/07/31 01:43:32;;;;;;;11.53;10.43;;;16.50;99.90;;;;;;5072239;28;20450;-70
2022/07/31 01:46:03;;;;;;;10.37;9.47;;;16.40;99.90;;;;;;5072068;28;20985;-70
2022/07/31 01:48:32;;;;;;;13.47;10.10;;;16.30;99.90;;;;;;5072317;28;20482;-70
2022/07/31 01:51:01;;;;;;;11.27;10.23;;;16.20;99.90;;;;;;5071536;28;20522;-71
2022/07/31 01:53:30;;;;;;;10.37;9.37;;;16.10;99.90;;;;;;5071709;28;20481;-71
2022/07/31 01:55:57;;;;;;;10.43;9.53;;;16.20;99.90;;;;;;5071951;28;20475;-70
2022/07/31 01:58:26;;;;;;;10.57;9.63;;;16.10;99.90;;;;;;5072238;28;20438;-70
2022/07/31 02:00:57;;;;;;;10.83;9.80;;;16.10;99.90;;;;;;5071351;28;20443;-70
2022/07/31 02:03:27;;;;;;;10.17;9.27;;;16.10;99.90;;;;;;5072194;28;20518;-70
2022/07/31 02:05:55;;;;;;;10.43;9.40;;;16.10;99.90;;;;;;5071661;28;20463;-69
2022/07/31 02:08:22;;;;;;;11.13;9.97;;;16.00;99.90;;;;;;5072115;28;20442;-70
2022/07/31 02:10:50;;;;;;;13.23;9.90;;;16.00;99.90;;;;;;5071265;28;20447;-72
2022/07/31 02:13:18;;;;;;;11.20;10.20;;;15.90;99.90;;;;;;5071982;28;20443;-72
2022/07/31 02:15:46;;;;;;;10.73;9.83;;;15.90;99.90;;;;;;5071419;28;20483;-69
2022/07/31 02:18:14;;;;;;;13.07;11.87;;;15.90;99.90;;;;;;5071713;28;20456;-71
2022/07/31 02:20:43;;;;;;;11.60;10.40;;;15.80;99.90;;;;;;5070828;28;20459;-72
2022/07/31 02:23:10;;;;;;;11.63;10.43;;;15.70;99.90;;;;;;5071863;28;20458;-72
2022/07/31 02:25:39;;;;;;;12.20;11.00;;;15.70;99.90;;;;;;5071370;28;20447;-71
2022/07/31 02:28:10;;;;;;;11.43;10.43;;;15.70;99.90;;;;;;5071616;28;20948;-72
2022/07/31 02:30:38;;;;;;;11.80;10.70;;;15.70;99.90;;;;;;5070635;28;20449;-70
2022/07/31 02:33:07;;;;;;;12.73;11.73;;;15.70;99.90;;;;;;5071409;28;20945;-70
2022/07/31 02:35:34;;;;;;;12.80;11.80;;;15.60;99.90;;;;;;5070877;28;20474;-72
2022/07/31 02:38:03;;;;;;;12.83;11.50;;;15.60;99.90;;;;;;5071571;28;20439;-70
2022/07/31 02:40:30;;;;;;;11.43;10.50;;;15.60;99.90;;;;;;5070556;28;20479;-70
2022/07/31 02:42:57;;;;;;;13.33;10.70;;;15.50;99.90;;;;;;5071206;28;20960;-69
2022/07/31 02:45:24;;;;;;;11.70;10.50;;;15.50;99.90;;;;;;5070559;28;20449;-70
2022/07/31 02:47:51;;;;;;;12.00;10.90;;;15.40;99.90;;;;;;5071345;28;20451;-70
2022/07/31 02:50:18;;;;;;;11.93;10.90;;;15.40;99.90;;;;;;5070374;28;20447;-70
2022/07/31 02:52:45;;;;;;;11.93;11.03;;;15.30;99.90;;;;;;5071256;28;20454;-70
2022/07/31 02:55:14;;;;;;;12.00;10.80;;;15.30;99.90;;;;;;5070715;28;20447;-71
2022/07/31 02:57:40;;;;;;;12.70;11.53;;;15.20;99.90;;;;;;5071244;28;20477;-71
2022/07/31 03:00:21;;;;;;;11.03;10.03;;;15.20;99.90;;;;;;5069887;28;20829;-72
2022/07/31 03:02:48;;;;;;;12.30;11.10;;;15.20;99.90;;;;;;5070907;28;20541;-70
2022/07/31 03:05:15;;;;;;;12.07;11.07;;;15.20;99.90;;;;;;5069741;28;20496;-70
2022/07/31 03:07:42;;;;;;;11.40;10.50;;;15.20;99.90;;;;;;5070874;28;20524;-69
2022/07/31 03:10:10;;;;;;;12.07;10.97;;;15.10;99.90;;;;;;5069938;28;20451;-70
2022/07/31 03:12:40;;;;;;;14.13;11.47;;;15.10;99.90;;;;;;5070467;28;20443;-71
2022/07/31 03:15:09;;;;;;;13.00;11.90;;;15.10;99.90;;;;;;5070452;28;20443;-70
2022/07/31 03:17:38;;;;;;;12.30;11.20;;;15.00;99.90;;;;;;5070637;28;20459;-70
2022/07/31 03:20:06;;;;;;;15.03;12.57;;;15.10;99.90;;;;;;5069644;28;20493;-71
2022/07/31 03:22:33;;;;;;;11.77;10.77;;;15.10;99.90;;;;;;5070437;28;20447;-70
2022/07/31 03:25:01;;;;;;;12.50;11.47;;;15.00;99.90;;;;;;5070086;28;20454;-71
2022/07/31 03:27:28;;;;;;;13.00;11.67;;;14.90;99.90;;;;;;5071367;28;20467;-70
2022/07/31 03:29:56;;;;;;;13.17;11.97;;;14.90;99.90;;;;;;5070636;28;20431;-69
2022/07/31 03:32:23;;;;;;;13.03;11.93;;;14.90;99.90;;;;;;5070977;28;20439;-70
2022/07/31 03:34:50;;;;;;;12.53;11.43;;;14.90;99.90;;;;;;5070815;28;20439;-70
2022/07/31 03:37:16;;;;;;;12.30;11.30;;;14.80;99.90;;;;;;5070244;28;20475;-71
2022/07/31 03:39:43;;;;;;;11.90;10.80;;;14.80;99.90;;;;;;5069779;28;20487;-71
2022/07/31 03:42:11;;;;;;;13.10;11.70;;;14.80;99.90;;;;;;5070961;28;20466;-70
2022/07/31 03:44:39;;;;;;;13.50;12.30;;;14.80;99.90;;;;;;5070485;28;20447;-70
2022/07/31 03:47:08;;;;;;;12.40;11.30;;;14.80;99.90;;;;;;5070999;28;20459;-70
2022/07/31 03:49:35;;;;;;;12.70;11.50;;;14.90;99.90;;;;;;5071149;28;20446;-70
2022/07/31 03:52:03;;;;;;;13.60;11.80;;;14.90;99.90;;;;;;5069467;28;20439;-70
2022/07/31 03:54:30;;;;;;;13.00;11.90;;;14.90;99.90;;;;;;5070014;28;20435;-72
2022/07/31 03:56:57;;;;;;;12.00;11.00;;;14.90;99.90;;;;;;5070245;28;20455;-70
2022/07/31 03:59:27;;;;;;;11.70;10.70;;;14.80;99.90;;;;;;5070016;28;20475;-70
2022/07/31 04:01:54;;;;;;;11.40;10.40;;;14.80;99.90;;;;;;5069095;28;20447;-71
2022/07/31 04:04:22;;;;;;;11.70;10.80;;;14.90;99.90;;;;;;5069526;28;20439;-70
2022/07/31 04:06:48;;;;;;;11.07;10.07;;;14.90;99.90;;;;;;5069716;28;20475;-70
2022/07/31 04:09:15;;;;;;;10.00;9.00;;;14.90;99.90;;;;;;5070051;28;20452;-70
2022/07/31 04:11:42;;;;;;;11.67;10.77;;;15.00;99.90;;;;;;5068966;28;20836;-72
2022/07/31 04:14:09;;;;;;;11.77;10.67;;;15.00;99.90;;;;;;5069694;28;20822;-69
2022/07/31 04:16:36;;;;;;;10.33;9.43;;;15.00;99.90;;;;;;5069419;28;20479;-70
2022/07/31 04:19:03;;;;;;;11.03;10.10;;;15.00;99.90;;;;;;5069562;28;20451;-72
2022/07/31 04:21:31;;;;;;;10.27;9.27;;;15.00;99.90;;;;;;5068719;28;20447;-70
2022/07/31 04:23:58;;;;;;;9.50;8.70;;;15.00;99.90;;;;;;5069821;28;20486;-70
2022/07/31 04:26:25;;;;;;;11.07;10.17;;;15.00;99.90;;;;;;5069265;28;20843;-70
2022/07/31 04:28:52;;;;;;;10.87;9.83;;;15.10;99.90;;;;;;5069753;28;20450;-70
2022/07/31 04:31:19;;;;;;;9.97;9.13;;;15.20;99.90;;;;;;5068891;28;20452;-73
2022/07/31 04:33:46;;;;;;;10.07;9.10;;;15.10;99.90;;;;;;5069616;28;20446;-69
2022/07/31 04:36:12;;;;;;;10.90;10.00;;;15.20;99.90;;;;;;5069034;28;20475;-70
2022/07/31 04:38:41;;;;;;;10.60;9.43;;;15.20;99.90;;;;;;5070087;28;20447;-71
2022/07/31 04:41:07;;;;;;;10.40;9.37;;;15.30;99.90;;;;;;5069056;28;20486;-70
2022/07/31 04:43:34;;;;;;;10.80;9.90;;;15.40;99.90;;;;;;5069691;28;20439;-69
2022/07/31 04:46:01;;;;;;;10.93;10.03;;;15.50;99.90;;;;;;5069029;28;20524;-72
2022/07/31 04:48:28;;;;;;;11.77;10.23;;;15.60;99.90;;;;;;5069450;28;20480;-70
2022/07/31 04:50:55;;;;;;;10.27;9.00;;;15.70;99.90;;;;;;5068796;28;20443;-70
2022/07/31 04:53:21;;;;;;;10.03;9.20;;;15.90;99.90;;;;;;5069425;28;20447;-72
2022/07/31 04:58:30;;;;;;;9.20;8.30;;;16.10;99.90;;;;;;5068718;28;20446;-70
2022/07/31 05:00:57;;;;;;;10.20;9.03;;;16.40;99.90;;;;;;5068432;28;20479;-70
2022/07/31 05:03:24;;;;;;;9.57;8.77;;;16.60;99.90;;;;;;5069210;28;20447;-71
2022/07/31 05:05:51;;;;;;;8.47;7.67;;;16.80;99.90;;;;;;5068898;28;20471;-70
2022/07/31 05:08:17;;;;;;;9.00;8.00;;;16.90;99.90;;;;;;5069209;28;20447;-70
2022/07/31 05:13:30;;;;;;;9.30;8.40;;;17.20;99.90;;;;;;5068939;28;20473;-71
2022/07/31 05:15:57;;;;;;;8.83;8.03;;;17.50;99.90;;;;;;5068826;28;20473;-70
2022/07/31 05:18:23;;;;;;;8.73;7.93;;;17.60;99.90;;;;;;5069220;28;20453;-70
2022/07/31 05:20:50;;;;;;;8.83;7.93;;;17.90;99.90;;;;;;5068326;28;20482;-71
2022/07/31 05:23:17;;;;;;;7.67;7.00;;;18.10;99.90;;;;;;5068978;28;20449;-71
2022/07/31 05:25:44;;;;;;;10.53;8.07;;;18.40;99.90;;;;;;5068683;28;20463;-70
2022/07/31 05:28:11;;;;;;;7.10;6.60;;;18.60;99.90;;;;;;5070929;28;20446;-72
2022/07/31 05:30:39;;;;;;;7.70;7.00;;;18.80;99.90;;;;;;5071826;28;20439;-70
2022/07/31 05:33:06;;;;;;;7.93;7.23;;;19.00;99.90;;;;;;5072830;28;20454;-70
2022/07/31 05:35:32;;;;;;;7.97;7.17;;;19.20;99.90;;;;;;5072440;28;21028;-70
2022/07/31 05:37:59;;;;;;;7.50;6.80;;;19.30;99.90;;;;;;5072697;28;20443;-70
2022/07/31 05:40:26;;;;;;;7.70;7.00;;;19.30;99.90;;;;;;5071352;28;20478;-70
2022/07/31 05:42:54;;;;;;;8.83;7.93;;;19.40;99.90;;;;;;5072363;28;20447;-72
2022/07/31 05:45:21;;;;;;;7.60;6.90;;;19.50;99.90;;;;;;5072110;28;20450;-70
2022/07/31 05:47:49;;;;;;;7.57;6.90;;;19.50;99.90;;;;;;5072247;28;20467;-70
2022/07/31 05:50:16;;;;;;;7.30;6.70;;;19.50;99.90;;;;;;5071415;28;20448;-71
2022/07/31 05:52:43;;;;;;;7.40;6.70;;;19.50;99.90;;;;;;5072265;28;20473;-70
2022/07/31 05:55:10;;;;;;;7.53;6.90;;;19.40;99.90;;;;;;5071494;28;20451;-71
2022/07/31 05:57:36;;;;;;;7.40;6.70;;;19.50;99.90;;;;;;5072200;28;20469;-70
2022/07/31 06:00:05;;;;;;;6.87;6.27;;;19.60;99.90;;;;;;5071110;28;21052;-71
2022/07/31 06:02:31;;;;;;;7.80;7.00;;;19.70;99.90;;;;;;5071939;28;20479;-72
2022/07/31 06:05:00;;;;;;;6.43;5.83;;;19.90;99.90;;;;;;5071575;28;21162;-71
2022/07/31 06:07:27;;;;;;;7.10;6.50;;;20.10;99.90;;;;;;5071841;28;20467;-71
2022/07/31 06:09:54;;;;;;;7.33;6.63;;;20.20;99.90;;;;;;5071023;28;20504;-71
2022/07/31 06:12:21;;;;;;;6.47;5.97;;;20.50;99.90;;;;;;5071626;28;20447;-72
2022/07/31 06:14:48;;;;;;;7.07;6.43;;;20.60;99.90;;;;;;5071508;28;20437;-70
2022/07/31 06:17:14;;;;;;;6.93;6.33;;;20.90;99.90;;;;;;5071551;28;20463;-70
2022/07/31 06:19:41;;;;;;;6.13;5.53;;;21.10;99.90;;;;;;5071436;28;20447;-72
2022/07/31 06:22:09;;;;;;;6.10;5.50;;;21.40;99.90;;;;;;5070815;28;21098;-72
2022/07/31 06:24:36;;;;;;;7.33;5.40;;;21.60;99.90;;;;;;5071598;28;20442;-72
2022/07/31 06:27:04;;;;;;;6.37;5.80;;;21.70;99.90;;;;;;5071339;28;20463;-70
2022/07/31 06:29:31;;;;;;;6.10;5.50;;;21.80;99.90;;;;;;5071697;28;20439;-71
2022/07/31 06:31:58;;;;;;;6.37;5.77;;;21.80;99.90;;;;;;5070732;28;20524;-71
2022/07/31 06:34:24;;;;;;;5.90;5.30;;;21.70;99.90;;;;;;5070814;28;20967;-71
2022/07/31 06:36:51;;;;;;;6.93;6.33;;;21.80;99.90;;;;;;5071021;28;20992;-71
2022/07/31 06:39:19;;;;;;;5.73;5.23;;;22.00;99.90;;;;;;5070152;28;20443;-71
2022/07/31 06:41:49;;;;;;;5.20;4.70;;;22.10;99.90;;;;;;5070065;28;20486;-71
2022/07/31 06:44:18;;;;;;;6.60;5.13;;;22.50;99.90;;;;;;5070834;28;20450;-74
2022/07/31 06:46:45;;;;;;;5.93;5.27;;;22.70;99.90;;;;;;5070969;28;20470;-71
2022/07/31 06:49:12;;;;;;;5.90;5.40;;;22.90;99.90;;;;;;5070973;28;20534;-71
2022/07/31 06:51:39;;;;;;;5.90;5.07;;;23.10;99.90;;;;;;5070332;28;20451;-71
2022/07/31 06:54:08;;;;;;;6.03;4.87;;;23.40;99.90;;;;;;5070923;28;20456;-70
2022/07/31 06:56:37;;;;;;;5.27;4.70;;;23.50;99.90;;;;;;5070543;28;20475;-71
2022/07/31 06:59:06;;;;;;;6.50;4.60;;;23.60;99.90;;;;;;5070609;28;20451;-70
2022/07/31 07:01:33;;;;;;;8.30;4.90;;;23.50;99.90;;;;;;5069983;28;20483;-71
2022/07/31 07:04:00;;;;;;;5.10;4.33;;;23.50;99.90;;;;;;5070748;28;20451;-70
2022/07/31 07:06:27;;;;;;;5.87;5.00;;;23.30;99.90;;;;;;5070191;28;20470;-71
2022/07/31 07:08:54;;;;;;;4.90;4.10;;;23.50;99.90;;;;;;5070888;28;20975;-71
2022/07/31 07:11:21;;;;;;;5.03;4.10;;;23.50;99.90;;;;;;5069769;28;20450;-68
2022/07/31 07:13:49;;;;;;;6.57;4.53;;;23.60;99.90;;;;;;5070737;28;20451;-71
2022/07/31 07:16:16;;;;;;;4.80;4.30;;;23.70;99.90;;;;;;5069999;28;21007;-71
2022/07/31 07:18:43;;;;;;;5.00;4.50;;;23.70;99.90;;;;;;5070942;28;20443;-72
2022/07/31 07:21:11;;;;;;;4.40;4.00;;;23.90;99.90;;;;;;5069681;28;20486;-71
2022/07/31 07:23:38;;;;;;;5.60;4.53;;;23.80;99.90;;;;;;5070412;28;20530;-71
2022/07/31 07:26:05;;;;;;;6.07;4.80;;;24.00;99.90;;;;;;5070042;28;20478;-71
2022/07/31 07:28:32;;;;;;;4.20;3.80;;;24.20;99.90;;;;;;5070653;28;20455;-73
2022/07/31 07:31:01;;;;;;;4.60;4.10;;;24.50;99.90;;;;;;5069373;28;20873;-69
2022/07/31 07:33:28;;;;;;;4.70;4.10;;;24.70;99.90;;;;;;5070963;28;20440;-71
2022/07/31 07:35:54;;;;;;;7.00;3.83;;;24.80;99.90;;;;;;5070101;28;20562;-71
2022/07/31 07:38:21;;;;;;;4.60;4.20;;;24.90;99.90;;;;;;5070853;28;20450;-71
2022/07/31 07:40:48;;;;;;;4.43;3.80;;;25.00;99.90;;;;;;5069943;28;20485;-72
2022/07/31 07:43:15;;;;;;;4.97;4.40;;;25.40;99.90;;;;;;5070150;28;20451;-70
2022/07/31 07:45:42;;;;;;;4.93;4.43;;;25.50;99.90;;;;;;5070184;28;20443;-68
2022/07/31 07:48:10;;;;;;;4.43;3.80;;;25.40;99.50;;;;;;5067299;28;20477;-70
2022/07/31 07:50:37;;;;;;;5.30;4.40;;;25.50;99.90;;;;;;5062112;28;20459;-65
2022/07/31 07:53:04;;;;;;;4.83;4.33;;;25.60;99.90;;;;;;5069542;28;20451;-71
2022/07/31 07:55:31;;;;;;;4.77;4.23;;;25.60;98.50;;;;;;5066089;28;20458;-70
2022/07/31 07:57:57;;;;;;;4.47;4.00;;;25.50;99.60;;;;;;5064576;28;20534;-70
2022/07/31 08:00:24;;;;;;;4.40;4.00;;;25.80;98.60;;;;;;5067742;28;20494;-70
2022/07/31 08:02:51;;;;;;;5.17;4.07;;;26.00;99.50;;;;;;5061922;28;20454;-71
2022/07/31 08:05:19;;;;;;;4.73;4.33;;;26.10;97.90;;;;;;5069109;28;20453;-67
2022/07/31 08:07:46;;;;;;;4.40;4.00;;;26.10;98.40;;;;;;5065547;28;20473;-72
2022/07/31 08:10:17;;;;;;;4.30;3.40;;;26.10;97.20;;;;;;5068814;28;20548;-70
2022/07/31 08:12:44;;;;;;;6.43;4.20;;;26.10;97.40;;;;;;5065191;28;20455;-70
2022/07/31 08:15:11;;;;;;;6.60;4.00;;;26.30;97.60;;;;;;5060646;28;20684;-72
2022/07/31 08:17:38;;;;;;;5.00;4.40;;;26.50;97.90;;;;;;5053344;28;20503;-70
2022/07/31 08:20:06;;;;;;;4.10;3.70;;;26.80;96.50;;;;;;5048894;28;20444;-69
2022/07/31 08:22:34;;;;;;;4.33;3.50;;;27.10;96.00;;;;;;5049733;28;20446;-70
2022/07/31 08:25:01;;;;;;;6.77;4.07;;;27.20;95.30;;;;;;5049412;28;20448;-71
2022/07/31 08:27:29;;;;;;;5.57;3.70;;;27.10;94.90;;;;;;5049296;28;20471;-71
2022/07/31 08:29:57;;;;;;;5.53;3.87;;;26.70;94.60;;;;;;5048838;28;21017;-71
2022/07/31 08:32:24;;;;;;;3.70;3.30;;;26.60;94.20;;;;;;5049562;28;20443;-71
2022/07/31 08:34:52;;;;;;;4.17;3.77;;;26.70;93.70;;;;;;5049179;28;20450;-72
2022/07/31 08:37:19;;;;;;;5.20;3.90;;;26.50;94.40;;;;;;5049178;28;20502;-71
2022/07/31 08:39:48;;;;;;;5.07;4.57;;;26.30;94.90;;;;;;5049139;28;21041;-71
2022/07/31 08:42:16;;;;;;;7.03;4.27;;;26.00;95.20;;;;;;5058511;28;20495;-71
2022/07/31 08:44:45;;;;;;;4.97;4.00;;;25.80;94.50;;;;;;5066190;28;20451;-71
2022/07/31 08:47:14;;;;;;;5.70;3.83;;;25.50;95.90;;;;;;5064077;28;20493;-72
2022/07/31 08:49:42;;;;;;;4.57;4.17;;;25.40;96.90;;;;;;5058989;28;20454;-71
2022/07/31 08:52:12;;;;;;;5.50;3.60;;;25.40;96.30;;;;;;5067730;28;20446;-73
2022/07/31 08:54:44;;;;;;;4.57;4.17;;;25.50;96.70;;;;;;5065752;28;20454;-71
2022/07/31 08:57:13;;;;;;;4.37;3.97;;;25.60;96.60;;;;;;5061354;28;20549;-71
2022/07/31 08:59:40;;;;;;;5.07;3.40;;;25.70;93.60;;;;;;5065310;28;20460;-71
2022/07/31 09:02:08;;;;;;;4.07;3.67;;;25.80;93.00;;;;;;5062170;28;20989;-71
2022/07/31 09:04:35;;;;;;;4.47;3.97;;;26.10;94.40;;;;;;5069561;28;20983;-69
2022/07/31 09:07:02;;;;;;;3.77;3.37;;;26.40;92.70;;;;;;5066308;28;21022;-71
2022/07/31 09:09:29;;;;;;;5.30;3.23;;;26.60;93.20;;;;;;5067711;28;20448;-71
2022/07/31 09:11:57;;;;;;;3.90;3.50;;;26.90;94.60;;;;;;5063668;28;20451;-69
2022/07/31 09:14:33;;;;;;;3.80;3.40;;;27.20;92.50;;;;;;5071378;28;21058;-70
2022/07/31 09:17:00;;;;;;;3.80;3.40;;;27.50;91.60;;;;;;5063439;28;20463;-70
2022/07/31 09:19:38;;;;;;;4.83;2.97;;;27.50;88.20;;;;;;5072773;28;20443;-71
2022/07/31 09:22:05;;;;;;;3.97;2.90;;;27.70;89.60;;;;;;5063105;28;20811;-70
2022/07/31 09:24:33;;;;;;;4.53;3.33;;;27.90;85.50;;;;;;5070178;28;20521;-72
2022/07/31 09:27:05;;;;;;;3.47;3.10;;;28.10;85.90;;;;;;5066895;28;20470;-70
2022/07/31 09:29:41;;;;;;;3.93;2.70;;;28.20;85.30;;;;;;5066447;28;20462;-70
2022/07/31 09:32:09;;;;;;;4.70;2.60;;;28.10;80.10;;;;;;5068179;28;20431;-69
2022/07/31 09:34:36;;;;;;;2.87;2.57;;;28.10;81.10;;;;;;5072260;28;20901;-69
2022/07/31 09:37:10;;;;;;;4.60;3.13;;;28.20;84.50;;;;;;5073029;28;20466;-71
2022/07/31 09:39:37;;;;;;;3.90;2.67;;;28.40;85.20;;;;;;5072364;28;20454;-70
2022/07/31 09:42:05;;;;;;;5.60;2.93;;;28.80;81.90;;;;;;5071763;28;20485;-70
2022/07/31 09:44:43;;;;;;;4.37;3.07;;;29.40;81.60;;;;;;5074164;28;20474;-70
2022/07/31 09:47:21;;;;;;;4.90;3.10;;;30.20;82.00;;;;;;5071145;28;20468;-69
2022/07/31 09:49:53;;;;;;;3.30;3.00;;;31.10;79.70;;;;;;5068645;28;20450;-70
2022/07/31 09:52:20;;;;;;;3.70;2.67;;;31.90;74.80;;;;;;5072240;28;20431;-70
2022/07/31 09:54:48;;;;;;;5.43;2.40;;;32.20;71.10;;;;;;5071994;28;20449;-70
2022/07/31 09:57:16;;;;;;;3.30;2.57;;;32.20;70.20;;;;;;5072277;28;20477;-70
2022/07/31 09:59:44;;;;;;;3.13;2.67;;;32.30;69.30;;;;;;5072027;28;20949;-70
2022/07/31 10:02:14;;;;;;;3.00;2.53;;;32.50;69.90;;;;;;5071708;28;20497;-70
2022/07/31 10:04:41;;;;;;;6.30;2.90;;;32.70;70.40;;;;;;5071810;28;20806;-70
2022/07/31 10:07:08;;;;;;;2.83;2.53;;;32.90;66.00;;;;;;5071955;28;20474;-72
2022/07/31 10:09:41;;;;;;;4.90;2.60;;;32.80;64.50;;;;;;5071834;28;20450;-70
2022/07/31 10:12:13;;;;;;;3.23;2.40;;;33.30;66.50;;;;;;5071588;28;20443;-70
2022/07/31 10:14:43;;;;;;;3.37;2.60;;;33.60;62.60;;;;;;5068408;28;20458;-69
2022/07/31 10:17:14;;;;;;;3.63;2.57;;;33.90;61.50;;;;;;5069841;28;20480;-70
2022/07/31 10:19:46;;;;;;;7.90;2.60;;;33.70;58.80;;;;;;5071498;28;20439;-70
2022/07/31 10:22:18;;;;;;;3.77;2.70;;;33.60;60.50;;;;;;5071927;28;20524;-69
2022/07/31 10:24:46;;;;;;;4.27;2.03;;;33.70;58.20;;;;;;5071435;28;20443;-70
2022/07/31 10:27:14;;;;;;;5.40;2.30;;;33.40;59.10;;;;;;5070116;28;20479;-70
2022/07/31 10:29:41;;;;;;;3.50;2.00;;;32.90;58.20;;;;;;5069182;28;20447;-69
2022/07/31 10:32:08;;;;;;;2.80;2.00;;;32.20;59.30;;;;;;5070731;28;21233;-70
2022/07/31 10:34:37;;;;;;;4.83;1.80;;;31.90;59.60;;;;;;5071153;28;20454;-71
2022/07/31 10:37:10;;;;;;;2.13;1.67;;;32.20;59.30;;;;;;5071386;28;20478;-70
2022/07/31 10:39:45;;;;;;;3.30;2.20;;;32.00;60.80;;;;;;5070810;28;20536;-69
2022/07/31 10:42:23;;;;;;;3.57;2.03;;;32.30;59.80;;;;;;5070279;28;20466;-68
2022/07/31 10:44:55;;;;;;;3.90;2.40;;;32.00;59.30;;;;;;5066866;28;20833;-71
2022/07/31 10:47:22;;;;;;;3.50;2.53;;;31.70;59.10;;;;;;5068454;28;20470;-70
2022/07/31 10:49:50;;;;;;;3.40;2.40;;;31.30;59.80;;;;;;5070657;28;20967;-70
2022/07/31 10:52:27;;;;;;;2.40;2.10;;;31.10;59.80;;;;;;5071154;28;20439;-71
2022/07/31 10:54:56;;;;;;;4.83;2.80;;;31.10;60.80;;;;;;5067432;28;20995;-71
2022/07/31 10:57:27;;;;;;;5.57;2.50;;;31.80;62.20;;;;;;5068090;28;20572;-69
2022/07/31 10:59:54;;;;;;;3.13;1.90;;;32.30;60.50;;;;;;5070270;28;20482;-71
2022/07/31 11:02:31;;;;;;;2.57;2.07;;;32.10;59.20;;;;;;5068248;28;21003;-69
2022/07/31 11:05:10;;;;;;;2.93;2.17;;;32.70;59.30;;;;;;5068337;28;20864;-71
2022/07/31 11:07:37;;;;;;;3.30;2.33;;;32.80;58.20;;;;;;5069799;28;20459;-69
2022/07/31 11:10:12;;;;;;;2.10;1.80;;;32.50;58.20;;;;;;5070006;28;20447;-71
2022/07/31 11:12:39;;;;;;;3.40;2.50;;;32.30;58.20;;;;;;5070677;28;20446;-70
2022/07/31 11:15:19;;;;;;;4.90;2.37;;;32.40;58.00;;;;;;5070485;28;20453;-70
2022/07/31 11:17:46;;;;;;;3.20;2.23;;;31.90;58.90;;;;;;5070557;28;20541;-69
2022/07/31 11:20:25;;;;;;;4.33;2.47;;;31.30;60.30;;;;;;5069584;28;20443;-70
2022/07/31 11:23:00;;;;;;;4.63;2.23;;;31.50;61.10;;;;;;5070323;28;20486;-70
2022/07/31 11:25:32;;;;;;;6.47;2.67;;;31.70;60.00;;;;;;5069667;28;20836;-69
2022/07/31 11:28:10;;;;;;;3.63;2.17;;;31.50;59.40;;;;;;5070381;28;20486;-70
2022/07/31 11:30:48;;;;;;;4.13;2.23;;;31.00;62.30;;;;;;5069494;28;20469;-71
2022/07/31 11:33:15;;;;;;;4.10;2.40;;;31.10;62.00;;;;;;5070398;28;20550;-70
2022/07/31 11:35:43;;;;;;;3.20;2.10;;;31.30;60.20;;;;;;5069893;28;20443;-69
2022/07/31 11:38:10;;;;;;;3.07;2.10;;;32.10;61.80;;;;;;5070155;28;20447;-68
2022/07/31 11:40:37;;;;;;;4.63;2.10;;;32.90;57.60;;;;;;5069506;28;20443;-68
2022/07/31 11:43:08;;;;;;;3.53;2.83;;;33.60;56.50;;;;;;5069679;28;20483;-68
2022/07/31 11:45:45;;;;;;;4.70;2.07;;;33.20;57.90;;;;;;5069971;28;20447;-71
2022/07/31 11:48:15;;;;;;;2.90;2.40;;;33.20;56.50;;;;;;5070214;28;20838;-70
2022/07/31 11:50:44;;;;;;;3.80;2.00;;;33.30;55.80;;;;;;5069443;28;20447;-69
2022/07/31 11:53:12;;;;;;;3.77;3.40;;;33.90;56.30;;;;;;5069892;28;20439;-70
2022/07/31 11:55:47;;;;;;;3.83;2.27;;;34.60;55.40;;;;;;5069288;28;20451;-72
2022/07/31 11:58:15;;;;;;;3.07;1.70;;;35.40;55.60;;;;;;5069945;28;20462;-71
2022/07/31 12:00:47;;;;;;;7.70;2.20;;;36.30;52.80;;;;;;5069110;28;20971;-70
2022/07/31 12:03:15;;;;;;;3.67;2.77;;;36.60;51.40;;;;;;5069692;28;20487;-71
2022/07/31 12:05:47;;;;;;;2.37;1.90;;;36.70;52.90;;;;;;5069425;28;20443;-69
2022/07/31 12:08:15;;;;;;;13.07;10.83;;;35.60;50.80;;;;;;5069943;28;20451;-70
2022/07/31 12:10:42;;;;;;;18.77;17.00;;;33.80;54.40;;;;;;5068966;28;20439;-71
2022/07/31 12:13:14;;;;;;;3.57;2.83;;;33.20;55.80;;;;;;5070011;28;20447;-70
2022/07/31 12:15:41;;;;;;;3.17;2.20;;;32.60;57.20;;;;;;5069294;28;20453;-70
2022/07/31 12:18:08;;;;;;;2.70;2.10;;;32.40;59.00;;;;;;5069727;28;20884;-70
2022/07/31 12:20:35;;;;;;;5.23;2.30;;;32.40;57.60;;;;;;5068722;28;20457;-69
2022/07/31 12:23:05;;;;;;;4.00;2.73;;;32.60;59.30;;;;;;5069693;28;20483;-69
2022/07/31 12:25:44;;;;;;;6.37;2.37;;;32.90;59.10;;;;;;5069066;28;20937;-70
2022/07/31 12:28:13;;;;;;;4.13;2.40;;;33.10;59.50;;;;;;5069761;28;20446;-69
2022/07/31 12:30:40;;;;;;;4.47;2.90;;;33.20;59.00;;;;;;5068747;28;20447;-70
2022/07/31 12:33:09;;;;;;;4.90;2.90;;;33.50;60.10;;;;;;5069555;28;20513;-70
2022/07/31 12:35:38;;;;;;;3.37;2.70;;;35.00;55.90;;;;;;5069249;28;20443;-70
2022/07/31 12:38:06;;;;;;;4.60;2.50;;;35.90;56.20;;;;;;5071358;28;20451;-70
2022/07/31 12:40:34;;;;;;;6.53;2.40;;;36.60;53.10;;;;;;5072906;28;20442;-69
2022/07/31 12:43:01;;;;;;;3.43;2.43;;;36.90;53.10;;;;;;5073709;28;20471;-70
2022/07/31 12:45:30;;;;;;;3.43;2.27;;;36.40;53.00;;;;;;5073066;28;20445;-71
2022/07/31 12:47:57;;;;;;;3.80;2.40;;;35.60;50.90;;;;;;5073784;28;20449;-69
2022/07/31 12:50:26;;;;;;;3.00;1.80;;;34.70;52.60;;;;;;5072895;28;20473;-69
2022/07/31 12:52:53;;;;;;;3.63;2.50;;;34.00;54.10;;;;;;5073554;28;20820;-69
2022/07/31 12:55:22;;;;;;;4.47;2.33;;;33.10;54.70;;;;;;5073337;28;20439;-69